sensor_id;sensor_type;location;lat;lon;timestamp;P1;durP1;ratioP1;P2;durP2;ratioP2
23952;SDS011;12163;49.316;6.092;2024-01-27T00:00:18;16.17;;;5.18;;
23952;SDS011;12163;49.316;6.092;2024-01-27T00:02:45;20.25;;;5.65;;
23952;SDS011;12163;49.316;6.092;2024-01-27T00:05:12;17.25;;;6.53;;
23952;SDS011;12163;49.316;6.092;2024-01-27T00:07:39;18.67;;;6.47;;
23952;SDS011;12163;49.316;6.092;2024-01-27T00:10:06;18.52;;;6.75;;
23952;SDS011;12163;49.316;6.092;2024-01-27T00:12:33;19.87;;;6.73;;
23952;SDS011;12163;49.316;6.092;2024-01-27T00:15:00;18.38;;;6.70;;
23952;SDS011;12163;49.316;6.092;2024-01-27T00:17:26;18.90;;;7.28;;
23952;SDS011;12163;49.316;6.092;2024-01-27T00:19:54;17.48;;;6.80;;
23952;SDS011;12163;49.316;6.092;2024-01-27T00:22:21;20.65;;;6.80;;
23952;SDS011;12163;49.316;6.092;2024-01-27T00:24:47;21.90;;;6.93;;
23952;SDS011;12163;49.316;6.092;2024-01-27T00:27:14;19.00;;;6.40;;
23952;SDS011;12163;49.316;6.092;2024-01-27T00:29:41;21.00;;;6.43;;
23952;SDS011;12163;49.316;6.092;2024-01-27T00:32:08;17.30;;;5.50;;
23952;SDS011;12163;49.316;6.092;2024-01-27T00:34:34;19.92;;;6.22;;
23952;SDS011;12163;49.316;6.092;2024-01-27T00:37:01;22.77;;;6.10;;
23952;SDS011;12163;49.316;6.092;2024-01-27T00:39:27;17.67;;;6.05;;
23952;SDS011;12163;49.316;6.092;2024-01-27T00:41:54;21.65;;;6.22;;
23952;SDS011;12163;49.316;6.092;2024-01-27T00:44:21;17.42;;;5.38;;
23952;SDS011;12163;49.316;6.092;2024-01-27T00:46:48;19.15;;;5.75;;
23952;SDS011;12163;49.316;6.092;2024-01-27T00:49:15;21.63;;;6.10;;
23952;SDS011;12163;49.316;6.092;2024-01-27T00:51:41;23.30;;;6.30;;
23952;SDS011;12163;49.316;6.092;2024-01-27T00:54:08;18.02;;;6.30;;
23952;SDS011;12163;49.316;6.092;2024-01-27T00:56:35;19.43;;;5.67;;
23952;SDS011;12163;49.316;6.092;2024-01-27T00:59:01;20.73;;;6.22;;
23952;SDS011;12163;49.316;6.092;2024-01-27T01:01:28;20.90;;;5.72;;
23952;SDS011;12163;49.316;6.092;2024-01-27T01:03:54;23.45;;;5.72;;
23952;SDS011;12163;49.316;6.092;2024-01-27T01:06:21;18.30;;;5.47;;
23952;SDS011;12163;49.316;6.092;2024-01-27T01:08:49;20.02;;;5.40;;
23952;SDS011;12163;49.316;6.092;2024-01-27T01:11:15;18.75;;;5.30;;
23952;SDS011;12163;49.316;6.092;2024-01-27T01:13:42;19.42;;;5.43;;
23952;SDS011;12163;49.316;6.092;2024-01-27T01:16:09;19.83;;;5.20;;
23952;SDS011;12163;49.316;6.092;2024-01-27T01:18:35;17.40;;;5.05;;
23952;SDS011;12163;49.316;6.092;2024-01-27T01:21:02;22.15;;;6.22;;
23952;SDS011;12163;49.316;6.092;2024-01-27T01:23:29;16.90;;;5.20;;
23952;SDS011;12163;49.316;6.092;2024-01-27T01:25:55;17.60;;;5.03;;
23952;SDS011;12163;49.316;6.092;2024-01-27T01:28:23;19.05;;;4.90;;
23952;SDS011;12163;49.316;6.092;2024-01-27T01:30:49;16.83;;;4.60;;
23952;SDS011;12163;49.316;6.092;2024-01-27T01:33:18;21.30;;;5.23;;
23952;SDS011;12163;49.316;6.092;2024-01-27T01:35:45;16.67;;;4.00;;
23952;SDS011;12163;49.316;6.092;2024-01-27T01:38:11;18.88;;;3.92;;
23952;SDS011;12163;49.316;6.092;2024-01-27T01:40:38;16.40;;;4.10;;
23952;SDS011;12163;49.316;6.092;2024-01-27T01:43:09;17.73;;;4.00;;
23952;SDS011;12163;49.316;6.092;2024-01-27T01:45:37;18.33;;;4.07;;
23952;SDS011;12163;49.316;6.092;2024-01-27T01:48:04;14.93;;;3.55;;
23952;SDS011;12163;49.316;6.092;2024-01-27T01:50:32;14.03;;;3.60;;
23952;SDS011;12163;49.316;6.092;2024-01-27T01:52:59;22.02;;;3.50;;
23952;SDS011;12163;49.316;6.092;2024-01-27T01:55:26;20.40;;;4.10;;
23952;SDS011;12163;49.316;6.092;2024-01-27T01:57:52;17.35;;;3.75;;
23952;SDS011;12163;49.316;6.092;2024-01-27T02:00:19;14.57;;;3.47;;
23952;SDS011;12163;49.316;6.092;2024-01-27T02:02:47;15.87;;;3.70;;
23952;SDS011;12163;49.316;6.092;2024-01-27T02:05:14;15.60;;;3.60;;
23952;SDS011;12163;49.316;6.092;2024-01-27T02:07:41;17.45;;;3.30;;
23952;SDS011;12163;49.316;6.092;2024-01-27T02:10:12;16.40;;;3.70;;
23952;SDS011;12163;49.316;6.092;2024-01-27T02:12:40;17.48;;;3.47;;
23952;SDS011;12163;49.316;6.092;2024-01-27T02:15:09;18.25;;;3.42;;
23952;SDS011;12163;49.316;6.092;2024-01-27T02:17:37;20.55;;;3.90;;
23952;SDS011;12163;49.316;6.092;2024-01-27T02:20:05;20.27;;;3.87;;
23952;SDS011;12163;49.316;6.092;2024-01-27T02:22:34;17.85;;;4.28;;
23952;SDS011;12163;49.316;6.092;2024-01-27T02:25:02;18.33;;;4.00;;
23952;SDS011;12163;49.316;6.092;2024-01-27T02:27:29;21.90;;;4.50;;
23952;SDS011;12163;49.316;6.092;2024-01-27T02:29:56;20.83;;;4.18;;
23952;SDS011;12163;49.316;6.092;2024-01-27T02:32:23;22.95;;;4.28;;
23952;SDS011;12163;49.316;6.092;2024-01-27T02:34:49;20.02;;;4.78;;
23952;SDS011;12163;49.316;6.092;2024-01-27T02:37:18;16.40;;;4.03;;
23952;SDS011;12163;49.316;6.092;2024-01-27T02:39:45;17.95;;;4.70;;
23952;SDS011;12163;49.316;6.092;2024-01-27T02:42:12;20.35;;;4.88;;
23952;SDS011;12163;49.316;6.092;2024-01-27T02:44:38;22.25;;;4.85;;
23952;SDS011;12163;49.316;6.092;2024-01-27T02:47:05;20.95;;;4.60;;
23952;SDS011;12163;49.316;6.092;2024-01-27T02:49:31;18.52;;;5.07;;
23952;SDS011;12163;49.316;6.092;2024-01-27T02:51:58;17.90;;;4.63;;
23952;SDS011;12163;49.316;6.092;2024-01-27T02:54:25;23.88;;;4.90;;
23952;SDS011;12163;49.316;6.092;2024-01-27T02:56:52;18.65;;;5.05;;
23952;SDS011;12163;49.316;6.092;2024-01-27T02:59:18;22.10;;;6.55;;
23952;SDS011;12163;49.316;6.092;2024-01-27T03:01:45;23.38;;;5.30;;
23952;SDS011;12163;49.316;6.092;2024-01-27T03:04:11;18.20;;;5.10;;
23952;SDS011;12163;49.316;6.092;2024-01-27T03:06:38;20.30;;;6.47;;
23952;SDS011;12163;49.316;6.092;2024-01-27T03:09:05;27.52;;;6.85;;
23952;SDS011;12163;49.316;6.092;2024-01-27T03:11:31;28.17;;;7.20;;
23952;SDS011;12163;49.316;6.092;2024-01-27T03:13:58;25.73;;;7.03;;
23952;SDS011;12163;49.316;6.092;2024-01-27T03:16:25;23.95;;;7.15;;
23952;SDS011;12163;49.316;6.092;2024-01-27T03:18:51;29.63;;;8.80;;
23952;SDS011;12163;49.316;6.092;2024-01-27T03:21:18;25.92;;;6.30;;
23952;SDS011;12163;49.316;6.092;2024-01-27T03:23:44;21.60;;;6.40;;
23952;SDS011;12163;49.316;6.092;2024-01-27T03:26:11;34.40;;;11.52;;
23952;SDS011;12163;49.316;6.092;2024-01-27T03:28:38;36.97;;;13.20;;
23952;SDS011;12163;49.316;6.092;2024-01-27T03:31:04;42.08;;;12.85;;
23952;SDS011;12163;49.316;6.092;2024-01-27T03:33:31;40.20;;;13.88;;
23952;SDS011;12163;49.316;6.092;2024-01-27T03:35:57;30.63;;;11.40;;
23952;SDS011;12163;49.316;6.092;2024-01-27T03:38:24;36.13;;;11.53;;
23952;SDS011;12163;49.316;6.092;2024-01-27T03:40:51;35.22;;;10.23;;
23952;SDS011;12163;49.316;6.092;2024-01-27T03:43:17;33.30;;;10.90;;
23952;SDS011;12163;49.316;6.092;2024-01-27T03:45:44;33.10;;;10.90;;
23952;SDS011;12163;49.316;6.092;2024-01-27T03:48:11;31.83;;;10.82;;
23952;SDS011;12163;49.316;6.092;2024-01-27T03:50:38;25.73;;;9.23;;
23952;SDS011;12163;49.316;6.092;2024-01-27T03:53:04;29.38;;;9.15;;
23952;SDS011;12163;49.316;6.092;2024-01-27T03:55:31;39.90;;;12.80;;
23952;SDS011;12163;49.316;6.092;2024-01-27T03:57:58;43.00;;;14.05;;
23952;SDS011;12163;49.316;6.092;2024-01-27T04:00:24;50.00;;;17.13;;
23952;SDS011;12163;49.316;6.092;2024-01-27T04:02:52;40.67;;;14.73;;
23952;SDS011;12163;49.316;6.092;2024-01-27T04:05:18;52.58;;;19.83;;
23952;SDS011;12163;49.316;6.092;2024-01-27T04:07:45;52.67;;;19.33;;
23952;SDS011;12163;49.316;6.092;2024-01-27T04:10:12;55.47;;;20.30;;
23952;SDS011;12163;49.316;6.092;2024-01-27T04:12:38;50.73;;;17.87;;
23952;SDS011;12163;49.316;6.092;2024-01-27T04:15:05;53.90;;;18.80;;
23952;SDS011;12163;49.316;6.092;2024-01-27T04:17:32;52.97;;;17.90;;
23952;SDS011;12163;49.316;6.092;2024-01-27T04:19:59;50.67;;;18.35;;
23952;SDS011;12163;49.316;6.092;2024-01-27T04:22:26;56.07;;;19.37;;
23952;SDS011;12163;49.316;6.092;2024-01-27T04:24:52;43.03;;;17.17;;
23952;SDS011;12163;49.316;6.092;2024-01-27T04:27:19;46.20;;;16.00;;
23952;SDS011;12163;49.316;6.092;2024-01-27T04:29:46;40.72;;;14.43;;
23952;SDS011;12163;49.316;6.092;2024-01-27T04:32:12;42.15;;;13.65;;
23952;SDS011;12163;49.316;6.092;2024-01-27T04:34:39;35.57;;;13.00;;
23952;SDS011;12163;49.316;6.092;2024-01-27T04:37:06;35.08;;;11.82;;
23952;SDS011;12163;49.316;6.092;2024-01-27T04:39:32;38.78;;;12.05;;
23952;SDS011;12163;49.316;6.092;2024-01-27T04:41:59;40.60;;;12.18;;
23952;SDS011;12163;49.316;6.092;2024-01-27T04:44:25;38.53;;;10.90;;
23952;SDS011;12163;49.316;6.092;2024-01-27T04:46:52;33.97;;;11.05;;
23952;SDS011;12163;49.316;6.092;2024-01-27T04:49:19;37.38;;;10.93;;
23952;SDS011;12163;49.316;6.092;2024-01-27T04:51:45;40.42;;;12.48;;
23952;SDS011;12163;49.316;6.092;2024-01-27T04:54:12;38.38;;;11.57;;
23952;SDS011;12163;49.316;6.092;2024-01-27T04:56:39;34.20;;;11.15;;
23952;SDS011;12163;49.316;6.092;2024-01-27T04:59:05;38.97;;;11.90;;
23952;SDS011;12163;49.316;6.092;2024-01-27T05:01:32;33.37;;;11.47;;
23952;SDS011;12163;49.316;6.092;2024-01-27T05:03:59;30.63;;;11.10;;
23952;SDS011;12163;49.316;6.092;2024-01-27T05:06:26;34.97;;;11.75;;
23952;SDS011;12163;49.316;6.092;2024-01-27T05:08:53;40.25;;;12.05;;
23952;SDS011;12163;49.316;6.092;2024-01-27T05:11:29;44.58;;;13.35;;
23952;SDS011;12163;49.316;6.092;2024-01-27T05:14:00;43.85;;;14.63;;
23952;SDS011;12163;49.316;6.092;2024-01-27T05:16:27;41.28;;;13.52;;
23952;SDS011;12163;49.316;6.092;2024-01-27T05:18:54;40.50;;;13.43;;
23952;SDS011;12163;49.316;6.092;2024-01-27T05:21:21;41.00;;;13.80;;
23952;SDS011;12163;49.316;6.092;2024-01-27T05:23:48;40.03;;;12.63;;
23952;SDS011;12163;49.316;6.092;2024-01-27T05:26:15;42.97;;;13.25;;
23952;SDS011;12163;49.316;6.092;2024-01-27T05:28:41;33.92;;;12.30;;
23952;SDS011;12163;49.316;6.092;2024-01-27T05:31:08;37.17;;;11.20;;
23952;SDS011;12163;49.316;6.092;2024-01-27T05:33:38;32.40;;;11.10;;
23952;SDS011;12163;49.316;6.092;2024-01-27T05:36:06;29.03;;;10.47;;
23952;SDS011;12163;49.316;6.092;2024-01-27T05:38:32;32.38;;;12.02;;
23952;SDS011;12163;49.316;6.092;2024-01-27T05:41:02;35.95;;;11.43;;
23952;SDS011;12163;49.316;6.092;2024-01-27T05:43:29;34.10;;;11.40;;
23952;SDS011;12163;49.316;6.092;2024-01-27T05:45:56;36.33;;;10.45;;
23952;SDS011;12163;49.316;6.092;2024-01-27T05:48:23;39.07;;;10.30;;
23952;SDS011;12163;49.316;6.092;2024-01-27T05:50:59;29.75;;;8.90;;
23952;SDS011;12163;49.316;6.092;2024-01-27T05:53:27;27.45;;;8.65;;
23952;SDS011;12163;49.316;6.092;2024-01-27T05:55:54;21.85;;;7.35;;
23952;SDS011;12163;49.316;6.092;2024-01-27T05:58:21;22.85;;;6.75;;
23952;SDS011;12163;49.316;6.092;2024-01-27T06:00:48;22.08;;;7.38;;
23952;SDS011;12163;49.316;6.092;2024-01-27T06:03:15;21.25;;;7.97;;
23952;SDS011;12163;49.316;6.092;2024-01-27T06:05:43;25.92;;;8.00;;
23952;SDS011;12163;49.316;6.092;2024-01-27T06:08:10;27.63;;;8.63;;
23952;SDS011;12163;49.316;6.092;2024-01-27T06:10:37;28.57;;;9.33;;
23952;SDS011;12163;49.316;6.092;2024-01-27T06:13:03;25.33;;;8.02;;
23952;SDS011;12163;49.316;6.092;2024-01-27T06:15:30;30.30;;;8.65;;
23952;SDS011;12163;49.316;6.092;2024-01-27T06:17:57;29.02;;;8.73;;
23952;SDS011;12163;49.316;6.092;2024-01-27T06:20:24;30.90;;;11.90;;
23952;SDS011;12163;49.316;6.092;2024-01-27T06:22:51;31.98;;;11.00;;
23952;SDS011;12163;49.316;6.092;2024-01-27T06:25:20;31.83;;;10.25;;
23952;SDS011;12163;49.316;6.092;2024-01-27T06:27:47;28.37;;;8.67;;
23952;SDS011;12163;49.316;6.092;2024-01-27T06:30:15;31.30;;;9.00;;
23952;SDS011;12163;49.316;6.092;2024-01-27T06:32:42;36.67;;;9.15;;
23952;SDS011;12163;49.316;6.092;2024-01-27T06:35:09;32.10;;;9.63;;
23952;SDS011;12163;49.316;6.092;2024-01-27T06:37:36;30.75;;;9.98;;
23952;SDS011;12163;49.316;6.092;2024-01-27T06:40:02;32.22;;;9.85;;
23952;SDS011;12163;49.316;6.092;2024-01-27T06:42:29;32.27;;;9.90;;
23952;SDS011;12163;49.316;6.092;2024-01-27T06:44:57;37.75;;;10.93;;
23952;SDS011;12163;49.316;6.092;2024-01-27T06:47:23;35.83;;;11.15;;
23952;SDS011;12163;49.316;6.092;2024-01-27T06:49:50;30.37;;;10.57;;
23952;SDS011;12163;49.316;6.092;2024-01-27T06:52:17;36.05;;;11.35;;
23952;SDS011;12163;49.316;6.092;2024-01-27T06:54:43;33.07;;;11.70;;
23952;SDS011;12163;49.316;6.092;2024-01-27T06:57:20;34.65;;;12.85;;
23952;SDS011;12163;49.316;6.092;2024-01-27T06:59:48;38.58;;;12.65;;
23952;SDS011;12163;49.316;6.092;2024-01-27T07:02:22;34.03;;;10.55;;
23952;SDS011;12163;49.316;6.092;2024-01-27T07:04:50;34.33;;;10.27;;
23952;SDS011;12163;49.316;6.092;2024-01-27T07:07:16;33.90;;;10.52;;
23952;SDS011;12163;49.316;6.092;2024-01-27T07:09:44;29.70;;;9.82;;
23952;SDS011;12163;49.316;6.092;2024-01-27T07:12:10;32.83;;;9.93;;
23952;SDS011;12163;49.316;6.092;2024-01-27T07:14:37;30.98;;;10.63;;
23952;SDS011;12163;49.316;6.092;2024-01-27T07:17:04;32.22;;;10.32;;
23952;SDS011;12163;49.316;6.092;2024-01-27T07:19:31;34.88;;;10.40;;
23952;SDS011;12163;49.316;6.092;2024-01-27T07:21:58;34.83;;;10.75;;
23952;SDS011;12163;49.316;6.092;2024-01-27T07:24:26;30.20;;;9.60;;
23952;SDS011;12163;49.316;6.092;2024-01-27T07:26:53;33.70;;;9.90;;
23952;SDS011;12163;49.316;6.092;2024-01-27T07:29:21;39.23;;;10.70;;
23952;SDS011;12163;49.316;6.092;2024-01-27T07:31:49;31.40;;;9.77;;
23952;SDS011;12163;49.316;6.092;2024-01-27T07:34:16;31.15;;;10.32;;
23952;SDS011;12163;49.316;6.092;2024-01-27T07:36:43;32.67;;;9.90;;
23952;SDS011;12163;49.316;6.092;2024-01-27T07:39:10;29.02;;;9.65;;
23952;SDS011;12163;49.316;6.092;2024-01-27T07:41:37;29.30;;;9.00;;
23952;SDS011;12163;49.316;6.092;2024-01-27T07:44:10;30.45;;;10.18;;
23952;SDS011;12163;49.316;6.092;2024-01-27T07:46:38;29.58;;;9.95;;
23952;SDS011;12163;49.316;6.092;2024-01-27T07:49:05;30.52;;;9.82;;
23952;SDS011;12163;49.316;6.092;2024-01-27T07:51:33;28.48;;;10.05;;
23952;SDS011;12163;49.316;6.092;2024-01-27T07:54:00;28.05;;;9.95;;
23952;SDS011;12163;49.316;6.092;2024-01-27T07:56:27;28.77;;;10.53;;
23952;SDS011;12163;49.316;6.092;2024-01-27T07:58:54;27.10;;;10.43;;
23952;SDS011;12163;49.316;6.092;2024-01-27T08:01:20;29.45;;;10.43;;
23952;SDS011;12163;49.316;6.092;2024-01-27T08:03:47;36.55;;;11.63;;
23952;SDS011;12163;49.316;6.092;2024-01-27T08:06:18;28.50;;;9.63;;
23952;SDS011;12163;49.316;6.092;2024-01-27T08:08:47;28.75;;;10.63;;
23952;SDS011;12163;49.316;6.092;2024-01-27T08:11:15;25.90;;;10.45;;
23952;SDS011;12163;49.316;6.092;2024-01-27T08:13:42;32.17;;;10.23;;
23952;SDS011;12163;49.316;6.092;2024-01-27T08:16:09;31.20;;;10.80;;
23952;SDS011;12163;49.316;6.092;2024-01-27T08:18:36;30.95;;;10.55;;
23952;SDS011;12163;49.316;6.092;2024-01-27T08:21:03;33.10;;;11.20;;
23952;SDS011;12163;49.316;6.092;2024-01-27T08:23:30;29.65;;;10.02;;
23952;SDS011;12163;49.316;6.092;2024-01-27T08:25:57;43.30;;;16.27;;
23952;SDS011;12163;49.316;6.092;2024-01-27T08:28:23;57.38;;;23.48;;
23952;SDS011;12163;49.316;6.092;2024-01-27T08:30:50;44.60;;;18.65;;
23952;SDS011;12163;49.316;6.092;2024-01-27T08:33:17;37.03;;;16.20;;
23952;SDS011;12163;49.316;6.092;2024-01-27T08:35:46;31.40;;;15.53;;
23952;SDS011;12163;49.316;6.092;2024-01-27T08:38:14;33.30;;;16.17;;
23952;SDS011;12163;49.316;6.092;2024-01-27T08:40:41;37.00;;;17.73;;
23952;SDS011;12163;49.316;6.092;2024-01-27T08:43:07;40.30;;;19.52;;
23952;SDS011;12163;49.316;6.092;2024-01-27T08:45:37;41.63;;;18.48;;
23952;SDS011;12163;49.316;6.092;2024-01-27T08:48:05;36.95;;;16.00;;
23952;SDS011;12163;49.316;6.092;2024-01-27T08:50:32;27.97;;;13.37;;
23952;SDS011;12163;49.316;6.092;2024-01-27T08:52:59;32.13;;;14.02;;
23952;SDS011;12163;49.316;6.092;2024-01-27T08:55:25;27.30;;;12.98;;
23952;SDS011;12163;49.316;6.092;2024-01-27T08:57:52;33.10;;;13.33;;
23952;SDS011;12163;49.316;6.092;2024-01-27T09:00:18;27.42;;;12.05;;
23952;SDS011;12163;49.316;6.092;2024-01-27T09:02:45;32.67;;;12.60;;
23952;SDS011;12163;49.316;6.092;2024-01-27T09:05:13;26.90;;;12.98;;
23952;SDS011;12163;49.316;6.092;2024-01-27T09:07:39;29.27;;;13.43;;
23952;SDS011;12163;49.316;6.092;2024-01-27T09:10:06;29.67;;;13.77;;
23952;SDS011;12163;49.316;6.092;2024-01-27T09:12:33;32.60;;;15.15;;
23952;SDS011;12163;49.316;6.092;2024-01-27T09:15:00;32.35;;;16.08;;
23952;SDS011;12163;49.316;6.092;2024-01-27T09:17:27;30.50;;;13.90;;
23952;SDS011;12163;49.316;6.092;2024-01-27T09:19:54;29.07;;;13.40;;
23952;SDS011;12163;49.316;6.092;2024-01-27T09:22:20;29.30;;;13.75;;
23952;SDS011;12163;49.316;6.092;2024-01-27T09:24:47;33.58;;;14.70;;
23952;SDS011;12163;49.316;6.092;2024-01-27T09:27:13;28.58;;;14.05;;
23952;SDS011;12163;49.316;6.092;2024-01-27T09:29:40;27.15;;;13.10;;
23952;SDS011;12163;49.316;6.092;2024-01-27T09:32:06;27.30;;;13.13;;
23952;SDS011;12163;49.316;6.092;2024-01-27T09:34:33;27.85;;;13.30;;
23952;SDS011;12163;49.316;6.092;2024-01-27T09:37:00;33.45;;;17.15;;
23952;SDS011;12163;49.316;6.092;2024-01-27T09:39:28;42.40;;;19.77;;
23952;SDS011;12163;49.316;6.092;2024-01-27T09:41:54;38.90;;;17.42;;
23952;SDS011;12163;49.316;6.092;2024-01-27T09:44:22;40.73;;;20.43;;
23952;SDS011;12163;49.316;6.092;2024-01-27T09:46:51;46.80;;;24.33;;
23952;SDS011;12163;49.316;6.092;2024-01-27T09:49:19;30.00;;;14.77;;
23952;SDS011;12163;49.316;6.092;2024-01-27T09:51:46;29.17;;;13.38;;
23952;SDS011;12163;49.316;6.092;2024-01-27T09:54:13;28.13;;;13.60;;
23952;SDS011;12163;49.316;6.092;2024-01-27T09:56:43;182.20;;;104.30;;
23952;SDS011;12163;49.316;6.092;2024-01-27T09:59:12;142.90;;;78.88;;
23952;SDS011;12163;49.316;6.092;2024-01-27T10:01:44;61.65;;;30.40;;
23952;SDS011;12163;49.316;6.092;2024-01-27T10:04:11;37.08;;;16.88;;
23952;SDS011;12163;49.316;6.092;2024-01-27T10:06:40;45.53;;;22.70;;
23952;SDS011;12163;49.316;6.092;2024-01-27T10:09:07;36.53;;;19.17;;
23952;SDS011;12163;49.316;6.092;2024-01-27T10:11:34;31.52;;;14.32;;
23952;SDS011;12163;49.316;6.092;2024-01-27T10:14:02;42.28;;;21.92;;
23952;SDS011;12163;49.316;6.092;2024-01-27T10:16:39;31.88;;;13.52;;
23952;SDS011;12163;49.316;6.092;2024-01-27T10:19:15;29.83;;;14.18;;
23952;SDS011;12163;49.316;6.092;2024-01-27T10:21:44;28.50;;;13.02;;
23952;SDS011;12163;49.316;6.092;2024-01-27T10:24:12;28.73;;;12.93;;
23952;SDS011;12163;49.316;6.092;2024-01-27T10:26:38;30.42;;;13.10;;
23952;SDS011;12163;49.316;6.092;2024-01-27T10:29:05;31.88;;;12.88;;
23952;SDS011;12163;49.316;6.092;2024-01-27T10:31:35;27.20;;;11.70;;
23952;SDS011;12163;49.316;6.092;2024-01-27T10:34:02;27.13;;;11.90;;
23952;SDS011;12163;49.316;6.092;2024-01-27T10:36:38;29.17;;;12.20;;
23952;SDS011;12163;49.316;6.092;2024-01-27T10:39:19;24.98;;;11.50;;
23952;SDS011;12163;49.316;6.092;2024-01-27T10:41:47;28.23;;;11.75;;
23952;SDS011;12163;49.316;6.092;2024-01-27T10:44:15;28.08;;;12.20;;
23952;SDS011;12163;49.316;6.092;2024-01-27T10:46:44;33.45;;;12.20;;
23952;SDS011;12163;49.316;6.092;2024-01-27T10:49:13;29.35;;;12.25;;
23952;SDS011;12163;49.316;6.092;2024-01-27T10:51:44;22.35;;;11.13;;
23952;SDS011;12163;49.316;6.092;2024-01-27T10:54:14;28.83;;;11.70;;
23952;SDS011;12163;49.316;6.092;2024-01-27T10:56:44;27.13;;;11.55;;
23952;SDS011;12163;49.316;6.092;2024-01-27T10:59:11;30.02;;;11.73;;
23952;SDS011;12163;49.316;6.092;2024-01-27T11:01:41;35.75;;;18.15;;
23952;SDS011;12163;49.316;6.092;2024-01-27T11:04:08;27.83;;;11.43;;
23952;SDS011;12163;49.316;6.092;2024-01-27T11:06:37;27.63;;;12.80;;
23952;SDS011;12163;49.316;6.092;2024-01-27T11:09:05;28.23;;;11.55;;
23952;SDS011;12163;49.316;6.092;2024-01-27T11:11:34;24.38;;;10.07;;
23952;SDS011;12163;49.316;6.092;2024-01-27T11:14:02;30.08;;;9.98;;
23952;SDS011;12163;49.316;6.092;2024-01-27T11:16:29;26.13;;;11.43;;
23952;SDS011;12163;49.316;6.092;2024-01-27T11:18:55;26.88;;;11.07;;
23952;SDS011;12163;49.316;6.092;2024-01-27T11:21:23;28.97;;;10.47;;
23952;SDS011;12163;49.316;6.092;2024-01-27T11:23:49;19.85;;;8.10;;
23952;SDS011;12163;49.316;6.092;2024-01-27T11:26:20;28.30;;;10.50;;
23952;SDS011;12163;49.316;6.092;2024-01-27T11:28:49;22.45;;;9.20;;
23952;SDS011;12163;49.316;6.092;2024-01-27T11:31:17;21.70;;;7.75;;
23952;SDS011;12163;49.316;6.092;2024-01-27T11:33:48;23.73;;;8.40;;
23952;SDS011;12163;49.316;6.092;2024-01-27T11:36:20;27.08;;;8.75;;
23952;SDS011;12163;49.316;6.092;2024-01-27T11:38:51;27.97;;;8.77;;
23952;SDS011;12163;49.316;6.092;2024-01-27T11:41:29;25.20;;;8.75;;
23952;SDS011;12163;49.316;6.092;2024-01-27T11:43:57;22.25;;;8.70;;
23952;SDS011;12163;49.316;6.092;2024-01-27T11:46:26;26.98;;;9.50;;
23952;SDS011;12163;49.316;6.092;2024-01-27T11:48:52;21.87;;;8.77;;
23952;SDS011;12163;49.316;6.092;2024-01-27T11:51:19;21.75;;;8.32;;
23952;SDS011;12163;49.316;6.092;2024-01-27T11:53:46;24.65;;;8.80;;
23952;SDS011;12163;49.316;6.092;2024-01-27T11:56:13;26.25;;;10.15;;
23952;SDS011;12163;49.316;6.092;2024-01-27T11:58:45;24.90;;;8.55;;
23952;SDS011;12163;49.316;6.092;2024-01-27T12:01:13;25.10;;;9.00;;
23952;SDS011;12163;49.316;6.092;2024-01-27T12:03:41;23.65;;;8.38;;
23952;SDS011;12163;49.316;6.092;2024-01-27T12:06:11;22.38;;;7.57;;
23952;SDS011;12163;49.316;6.092;2024-01-27T12:08:40;24.48;;;8.23;;
23952;SDS011;12163;49.316;6.092;2024-01-27T12:11:13;29.40;;;10.15;;
23952;SDS011;12163;49.316;6.092;2024-01-27T12:13:42;23.58;;;8.35;;
23952;SDS011;12163;49.316;6.092;2024-01-27T12:16:08;27.45;;;11.05;;
23952;SDS011;12163;49.316;6.092;2024-01-27T12:18:35;25.30;;;7.43;;
23952;SDS011;12163;49.316;6.092;2024-01-27T12:21:02;26.70;;;7.65;;
23952;SDS011;12163;49.316;6.092;2024-01-27T12:23:29;24.48;;;8.13;;
23952;SDS011;12163;49.316;6.092;2024-01-27T12:25:55;18.00;;;6.32;;
23952;SDS011;12163;49.316;6.092;2024-01-27T12:28:22;24.30;;;8.45;;
23952;SDS011;12163;49.316;6.092;2024-01-27T12:30:53;25.90;;;10.75;;
23952;SDS011;12163;49.316;6.092;2024-01-27T12:33:19;24.17;;;8.45;;
23952;SDS011;12163;49.316;6.092;2024-01-27T12:35:51;21.85;;;6.50;;
23952;SDS011;12163;49.316;6.092;2024-01-27T12:38:20;25.48;;;8.98;;
23952;SDS011;12163;49.316;6.092;2024-01-27T12:40:48;21.00;;;6.50;;
23952;SDS011;12163;49.316;6.092;2024-01-27T12:43:15;22.73;;;6.47;;
23952;SDS011;12163;49.316;6.092;2024-01-27T12:45:41;20.40;;;6.55;;
23952;SDS011;12163;49.316;6.092;2024-01-27T12:48:08;19.17;;;5.90;;
23952;SDS011;12163;49.316;6.092;2024-01-27T12:50:35;21.35;;;6.72;;
23952;SDS011;12163;49.316;6.092;2024-01-27T12:53:02;25.45;;;6.35;;
23952;SDS011;12163;49.316;6.092;2024-01-27T12:55:29;19.88;;;5.57;;
23952;SDS011;12163;49.316;6.092;2024-01-27T12:57:56;19.38;;;5.25;;
23952;SDS011;12163;49.316;6.092;2024-01-27T13:00:23;21.20;;;5.38;;
23952;SDS011;12163;49.316;6.092;2024-01-27T13:02:50;23.10;;;6.60;;
23952;SDS011;12163;49.316;6.092;2024-01-27T13:05:17;21.52;;;5.43;;
23952;SDS011;12163;49.316;6.092;2024-01-27T13:07:43;23.87;;;6.23;;
23952;SDS011;12163;49.316;6.092;2024-01-27T13:10:11;21.60;;;6.20;;
23952;SDS011;12163;49.316;6.092;2024-01-27T13:12:38;24.30;;;5.85;;
23952;SDS011;12163;49.316;6.092;2024-01-27T13:15:05;22.75;;;5.55;;
23952;SDS011;12163;49.316;6.092;2024-01-27T13:17:31;20.10;;;5.97;;
23952;SDS011;12163;49.316;6.092;2024-01-27T13:19:59;21.30;;;6.30;;
23952;SDS011;12163;49.316;6.092;2024-01-27T13:22:25;22.08;;;6.28;;
23952;SDS011;12163;49.316;6.092;2024-01-27T13:24:52;22.63;;;5.90;;
23952;SDS011;12163;49.316;6.092;2024-01-27T13:27:18;24.10;;;10.20;;
23952;SDS011;12163;49.316;6.092;2024-01-27T13:29:46;27.20;;;11.25;;
23952;SDS011;12163;49.316;6.092;2024-01-27T13:32:13;25.27;;;11.05;;
23952;SDS011;12163;49.316;6.092;2024-01-27T13:34:39;28.30;;;11.93;;
23952;SDS011;12163;49.316;6.092;2024-01-27T13:37:06;24.90;;;10.68;;
23952;SDS011;12163;49.316;6.092;2024-01-27T13:39:32;24.08;;;7.78;;
23952;SDS011;12163;49.316;6.092;2024-01-27T13:41:59;23.13;;;7.10;;
23952;SDS011;12163;49.316;6.092;2024-01-27T13:44:26;22.77;;;7.90;;
23952;SDS011;12163;49.316;6.092;2024-01-27T13:46:53;33.08;;;15.48;;
23952;SDS011;12163;49.316;6.092;2024-01-27T13:49:20;44.45;;;24.20;;
23952;SDS011;12163;49.316;6.092;2024-01-27T13:51:46;19.80;;;7.00;;
23952;SDS011;12163;49.316;6.092;2024-01-27T13:54:13;30.67;;;11.65;;
23952;SDS011;12163;49.316;6.092;2024-01-27T13:56:40;25.35;;;10.77;;
23952;SDS011;12163;49.316;6.092;2024-01-27T13:59:07;20.23;;;7.87;;
23952;SDS011;12163;49.316;6.092;2024-01-27T14:01:34;21.48;;;7.32;;
23952;SDS011;12163;49.316;6.092;2024-01-27T14:04:01;55.85;;;32.10;;
23952;SDS011;12163;49.316;6.092;2024-01-27T14:06:28;43.53;;;21.83;;
23952;SDS011;12163;49.316;6.092;2024-01-27T14:08:55;23.38;;;8.35;;
23952;SDS011;12163;49.316;6.092;2024-01-27T14:11:22;22.95;;;7.38;;
23952;SDS011;12163;49.316;6.092;2024-01-27T14:13:48;20.63;;;7.35;;
23952;SDS011;12163;49.316;6.092;2024-01-27T14:16:15;28.08;;;11.85;;
23952;SDS011;12163;49.316;6.092;2024-01-27T14:18:44;28.10;;;10.87;;
23952;SDS011;12163;49.316;6.092;2024-01-27T14:21:10;31.00;;;11.13;;
23952;SDS011;12163;49.316;6.092;2024-01-27T14:23:37;24.97;;;9.10;;
23952;SDS011;12163;49.316;6.092;2024-01-27T14:26:04;30.20;;;13.60;;
23952;SDS011;12163;49.316;6.092;2024-01-27T14:28:33;24.83;;;8.40;;